sensor_id;sensor_type;location;lat;lon;timestamp;temperature;humidity
12477;DHT22;6303;51.504;6.300;2023-04-02T00:01:45;21.90;56.40
12477;DHT22;6303;51.504;6.300;2023-04-02T00:04:17;21.90;56.30
12477;DHT22;6303;51.504;6.300;2023-04-02T00:06:56;21.90;56.20
12477;DHT22;6303;51.504;6.300;2023-04-02T00:09:42;21.90;56.10
12477;DHT22;6303;51.504;6.300;2023-04-02T00:12:15;21.90;56.10
12477;DHT22;6303;51.504;6.300;2023-04-02T00:14:51;21.90;56.10
12477;DHT22;6303;51.504;6.300;2023-04-02T00:17:20;21.90;56.10
12477;DHT22;6303;51.504;6.300;2023-04-02T00:19:51;21.90;56.10
12477;DHT22;6303;51.504;6.300;2023-04-02T00:22:21;21.90;56.10
12477;DHT22;6303;51.504;6.300;2023-04-02T00:24:49;21.90;56.00
12477;DHT22;6303;51.504;6.300;2023-04-02T00:27:18;21.90;56.10
12477;DHT22;6303;51.504;6.300;2023-04-02T00:29:46;21.90;56.10
12477;DHT22;6303;51.504;6.300;2023-04-02T00:32:21;21.90;56.00
12477;DHT22;6303;51.504;6.300;2023-04-02T00:34:48;21.90;56.10
12477;DHT22;6303;51.504;6.300;2023-04-02T00:37:18;21.90;56.00
12477;DHT22;6303;51.504;6.300;2023-04-02T00:39:50;21.90;56.10
12477;DHT22;6303;51.504;6.300;2023-04-02T00:42:19;21.90;56.00
12477;DHT22;6303;51.504;6.300;2023-04-02T00:44:48;21.90;56.00
12477;DHT22;6303;51.504;6.300;2023-04-02T00:47:20;21.90;56.00
12477;DHT22;6303;51.504;6.300;2023-04-02T00:49:50;21.90;56.00
12477;DHT22;6303;51.504;6.300;2023-04-02T00:52:22;21.80;56.00
12477;DHT22;6303;51.504;6.300;2023-04-02T00:54:51;21.80;56.00
12477;DHT22;6303;51.504;6.300;2023-04-02T00:57:24;21.80;56.00
12477;DHT22;6303;51.504;6.300;2023-04-02T00:59:55;21.80;56.00
12477;DHT22;6303;51.504;6.300;2023-04-02T01:02:27;21.80;56.00
12477;DHT22;6303;51.504;6.300;2023-04-02T01:04:57;21.80;56.00
12477;DHT22;6303;51.504;6.300;2023-04-02T01:07:42;21.80;55.90
12477;DHT22;6303;51.504;6.300;2023-04-02T01:10:24;21.80;55.90
12477;DHT22;6303;51.504;6.300;2023-04-02T01:13:04;21.80;55.90
12477;DHT22;6303;51.504;6.300;2023-04-02T01:15:37;21.80;55.80
12477;DHT22;6303;51.504;6.300;2023-04-02T01:18:23;21.80;55.90
12477;DHT22;6303;51.504;6.300;2023-04-02T01:21:09;21.80;55.80
12477;DHT22;6303;51.504;6.300;2023-04-02T01:23:47;21.80;55.90
12477;DHT22;6303;51.504;6.300;2023-04-02T01:26:36;21.80;55.90
12477;DHT22;6303;51.504;6.300;2023-04-02T01:29:11;21.80;55.90
12477;DHT22;6303;51.504;6.300;2023-04-02T01:31:40;21.80;55.90
12477;DHT22;6303;51.504;6.300;2023-04-02T01:34:10;21.80;55.90
12477;DHT22;6303;51.504;6.300;2023-04-02T01:36:45;21.80;55.90
12477;DHT22;6303;51.504;6.300;2023-04-02T01:39:26;21.80;55.80
12477;DHT22;6303;51.504;6.300;2023-04-02T01:42:01;21.80;55.80
12477;DHT22;6303;51.504;6.300;2023-04-02T01:44:36;21.80;55.80
12477;DHT22;6303;51.504;6.300;2023-04-02T01:47:10;21.80;55.80
12477;DHT22;6303;51.504;6.300;2023-04-02T01:49:38;21.80;55.70
12477;DHT22;6303;51.504;6.300;2023-04-02T01:52:06;21.80;55.70
12477;DHT22;6303;51.504;6.300;2023-04-02T01:54:38;21.80;55.70
12477;DHT22;6303;51.504;6.300;2023-04-02T01:57:06;21.80;55.80
12477;DHT22;6303;51.504;6.300;2023-04-02T01:59:35;21.70;55.70
12477;DHT22;6303;51.504;6.300;2023-04-02T02:02:06;21.70;55.70
12477;DHT22;6303;51.504;6.300;2023-04-02T02:04:38;21.70;55.70
12477;DHT22;6303;51.504;6.300;2023-04-02T02:07:13;21.70;55.80
12477;DHT22;6303;51.504;6.300;2023-04-02T02:09:42;21.70;55.70
12477;DHT22;6303;51.504;6.300;2023-04-02T02:12:12;21.70;55.60
12477;DHT22;6303;51.504;6.300;2023-04-02T02:14:47;21.70;55.60
12477;DHT22;6303;51.504;6.300;2023-04-02T02:17:16;21.70;55.60
12477;DHT22;6303;51.504;6.300;2023-04-02T02:19:45;21.70;55.60
12477;DHT22;6303;51.504;6.300;2023-04-02T02:22:18;21.70;55.60
12477;DHT22;6303;51.504;6.300;2023-04-02T02:24:48;21.70;56.30
12477;DHT22;6303;51.504;6.300;2023-04-02T02:27:46;21.70;55.60
12477;DHT22;6303;51.504;6.300;2023-04-02T02:30:21;21.70;55.50
12477;DHT22;6303;51.504;6.300;2023-04-02T02:32:54;21.70;55.40
12477;DHT22;6303;51.504;6.300;2023-04-02T02:35:27;21.70;55.40
12477;DHT22;6303;51.504;6.300;2023-04-02T02:38:04;21.70;55.40
12477;DHT22;6303;51.504;6.300;2023-04-02T02:40:37;21.70;55.40
12477;DHT22;6303;51.504;6.300;2023-04-02T02:43:10;21.70;56.00
12477;DHT22;6303;51.504;6.300;2023-04-02T02:45:42;21.70;55.40
12477;DHT22;6303;51.504;6.300;2023-04-02T02:48:12;21.60;55.40
12477;DHT22;6303;51.504;6.300;2023-04-02T02:50:42;21.60;55.30
12477;DHT22;6303;51.504;6.300;2023-04-02T02:53:15;21.70;55.40
12477;DHT22;6303;51.504;6.300;2023-04-02T02:55:44;21.60;55.30
12477;DHT22;6303;51.504;6.300;2023-04-02T02:58:19;21.60;55.30
12477;DHT22;6303;51.504;6.300;2023-04-02T03:01:13;21.60;55.20
12477;DHT22;6303;51.504;6.300;2023-04-02T03:03:43;21.60;55.10
12477;DHT22;6303;51.504;6.300;2023-04-02T03:06:15;21.20;55.00
12477;DHT22;6303;51.504;6.300;2023-04-02T03:08:51;21.60;55.20
12477;DHT22;6303;51.504;6.300;2023-04-02T03:11:28;21.60;55.20
12477;DHT22;6303;51.504;6.300;2023-04-02T03:14:04;21.60;55.10
12477;DHT22;6303;51.504;6.300;2023-04-02T03:16:38;21.60;55.10
12477;DHT22;6303;51.504;6.300;2023-04-02T03:19:09;21.60;55.10
12477;DHT22;6303;51.504;6.300;2023-04-02T03:21:45;21.60;55.10
12477;DHT22;6303;51.504;6.300;2023-04-02T03:24:21;21.60;55.10
12477;DHT22;6303;51.504;6.300;2023-04-02T03:26:55;21.60;55.10
12477;DHT22;6303;51.504;6.300;2023-04-02T03:29:26;21.60;55.10
12477;DHT22;6303;51.504;6.300;2023-04-02T03:31:59;21.60;55.00
12477;DHT22;6303;51.504;6.300;2023-04-02T03:34:29;21.60;55.00
12477;DHT22;6303;51.504;6.300;2023-04-02T03:37:06;21.60;55.00
12477;DHT22;6303;51.504;6.300;2023-04-02T03:39:37;21.60;55.00
12477;DHT22;6303;51.504;6.300;2023-04-02T03:42:12;21.60;54.90
12477;DHT22;6303;51.504;6.300;2023-04-02T03:44:45;21.60;54.90
12477;DHT22;6303;51.504;6.300;2023-04-02T03:47:18;21.60;54.80
12477;DHT22;6303;51.504;6.300;2023-04-02T03:49:54;21.60;54.80
12477;DHT22;6303;51.504;6.300;2023-04-02T03:52:25;21.60;54.80
12477;DHT22;6303;51.504;6.300;2023-04-02T03:54:56;21.50;54.70
12477;DHT22;6303;51.504;6.300;2023-04-02T03:57:30;21.50;54.80
12477;DHT22;6303;51.504;6.300;2023-04-02T04:00:03;21.50;54.70
12477;DHT22;6303;51.504;6.300;2023-04-02T04:02:44;21.50;54.70
12477;DHT22;6303;51.504;6.300;2023-04-02T04:05:22;21.50;54.80
12477;DHT22;6303;51.504;6.300;2023-04-02T04:07:56;21.50;54.80
12477;DHT22;6303;51.504;6.300;2023-04-02T04:10:25;21.50;54.80
12477;DHT22;6303;51.504;6.300;2023-04-02T04:12:56;21.50;54.80
12477;DHT22;6303;51.504;6.300;2023-04-02T04:15:31;21.50;54.70
12477;DHT22;6303;51.504;6.300;2023-04-02T04:18:08;21.50;54.70
12477;DHT22;6303;51.504;6.300;2023-04-02T04:20:48;21.50;54.70
12477;DHT22;6303;51.504;6.300;2023-04-02T04:23:26;21.50;54.80
12477;DHT22;6303;51.504;6.300;2023-04-02T04:25:59;21.50;54.70
12477;DHT22;6303;51.504;6.300;2023-04-02T04:28:35;21.40;54.70
12477;DHT22;6303;51.504;6.300;2023-04-02T04:31:13;21.40;54.70
12477;DHT22;6303;51.504;6.300;2023-04-02T04:33:52;21.40;54.70
12477;DHT22;6303;51.504;6.300;2023-04-02T04:36:37;21.40;55.30
12477;DHT22;6303;51.504;6.300;2023-04-02T04:39:22;21.50;54.70
12477;DHT22;6303;51.504;6.300;2023-04-02T04:41:57;21.50;54.70
12477;DHT22;6303;51.504;6.300;2023-04-02T04:44:38;21.50;54.70
12477;DHT22;6303;51.504;6.300;2023-04-02T04:47:10;21.50;54.60
12477;DHT22;6303;51.504;6.300;2023-04-02T04:49:42;21.40;54.60
12477;DHT22;6303;51.504;6.300;2023-04-02T04:52:16;21.40;54.60
12477;DHT22;6303;51.504;6.300;2023-04-02T04:54:45;21.40;55.20
12477;DHT22;6303;51.504;6.300;2023-04-02T04:57:24;21.40;54.60
12477;DHT22;6303;51.504;6.300;2023-04-02T04:59:57;21.40;54.60
12477;DHT22;6303;51.504;6.300;2023-04-02T05:02:31;21.40;54.60
12477;DHT22;6303;51.504;6.300;2023-04-02T05:05:02;21.40;54.50
12477;DHT22;6303;51.504;6.300;2023-04-02T05:07:41;21.40;54.50
12477;DHT22;6303;51.504;6.300;2023-04-02T05:10:14;21.40;54.50
12477;DHT22;6303;51.504;6.300;2023-04-02T05:12:49;21.40;54.50
12477;DHT22;6303;51.504;6.300;2023-04-02T05:15:23;21.40;55.10
12477;DHT22;6303;51.504;6.300;2023-04-02T05:18:07;21.30;54.40
12477;DHT22;6303;51.504;6.300;2023-04-02T05:20:45;21.30;54.30
12477;DHT22;6303;51.504;6.300;2023-04-02T05:23:17;21.30;54.20
12477;DHT22;6303;51.504;6.300;2023-04-02T05:25:51;21.40;54.40
12477;DHT22;6303;51.504;6.300;2023-04-02T05:28:25;21.10;54.40
12477;DHT22;6303;51.504;6.300;2023-04-02T05:30:58;21.30;54.60
12477;DHT22;6303;51.504;6.300;2023-04-02T05:33:31;21.20;54.70
12477;DHT22;6303;51.504;6.300;2023-04-02T05:36:08;21.30;54.70
12477;DHT22;6303;51.504;6.300;2023-04-02T05:38:44;21.30;54.60
12477;DHT22;6303;51.504;6.300;2023-04-02T05:41:22;21.30;52.70
12477;DHT22;6303;51.504;6.300;2023-04-02T05:43:57;21.30;51.30
12477;DHT22;6303;51.504;6.300;2023-04-02T05:46:32;21.30;51.90
12477;DHT22;6303;51.504;6.300;2023-04-02T05:49:03;21.30;51.80
12477;DHT22;6303;51.504;6.300;2023-04-02T05:51:39;21.30;51.10
12477;DHT22;6303;51.504;6.300;2023-04-02T05:54:17;21.30;50.60
12477;DHT22;6303;51.504;6.300;2023-04-02T05:56:51;21.30;50.00
12477;DHT22;6303;51.504;6.300;2023-04-02T05:59:23;21.30;50.10
12477;DHT22;6303;51.504;6.300;2023-04-02T06:01:56;21.30;50.40
12477;DHT22;6303;51.504;6.300;2023-04-02T06:04:35;21.30;50.90
12477;DHT22;6303;51.504;6.300;2023-04-02T06:07:08;21.30;51.10
12477;DHT22;6303;51.504;6.300;2023-04-02T06:09:47;21.30;51.60
12477;DHT22;6303;51.504;6.300;2023-04-02T06:12:21;21.20;52.00
12477;DHT22;6303;51.504;6.300;2023-04-02T06:14:50;21.20;52.10
12477;DHT22;6303;51.504;6.300;2023-04-02T06:17:20;21.20;52.20
12477;DHT22;6303;51.504;6.300;2023-04-02T06:19:48;21.20;52.10
12477;DHT22;6303;51.504;6.300;2023-04-02T06:22:23;21.20;52.20
12477;DHT22;6303;51.504;6.300;2023-04-02T06:24:57;21.20;52.30
12477;DHT22;6303;51.504;6.300;2023-04-02T06:27:26;21.20;52.20
12477;DHT22;6303;51.504;6.300;2023-04-02T06:29:58;21.20;52.30
12477;DHT22;6303;51.504;6.300;2023-04-02T06:32:29;21.20;52.40
12477;DHT22;6303;51.504;6.300;2023-04-02T06:34:56;21.20;52.40
12477;DHT22;6303;51.504;6.300;2023-04-02T06:37:28;21.20;52.40
12477;DHT22;6303;51.504;6.300;2023-04-02T06:40:39;21.20;52.40
12477;DHT22;6303;51.504;6.300;2023-04-02T06:43:25;21.30;52.50
12477;DHT22;6303;51.504;6.300;2023-04-02T06:46:12;21.30;52.50
12477;DHT22;6303;51.504;6.300;2023-04-02T06:49:03;21.30;52.50
12477;DHT22;6303;51.504;6.300;2023-04-02T06:51:32;21.30;52.70
12477;DHT22;6303;51.504;6.300;2023-04-02T06:54:03;21.20;52.80
12477;DHT22;6303;51.504;6.300;2023-04-02T06:56:39;21.30;53.00
12477;DHT22;6303;51.504;6.300;2023-04-02T06:59:09;21.30;53.00
12477;DHT22;6303;51.504;6.300;2023-04-02T07:01:41;21.30;53.10
12477;DHT22;6303;51.504;6.300;2023-04-02T07:04:09;21.30;51.00
12477;DHT22;6303;51.504;6.300;2023-04-02T07:06:40;21.30;50.00
12477;DHT22;6303;51.504;6.300;2023-04-02T07:09:10;21.30;50.00
12477;DHT22;6303;51.504;6.300;2023-04-02T07:11:40;21.30;50.20
12477;DHT22;6303;51.504;6.300;2023-04-02T07:14:10;21.40;50.30
12477;DHT22;6303;51.504;6.300;2023-04-02T07:16:39;21.40;50.60
12477;DHT22;6303;51.504;6.300;2023-04-02T07:19:08;21.40;50.60
12477;DHT22;6303;51.504;6.300;2023-04-02T07:21:40;21.40;50.80
12477;DHT22;6303;51.504;6.300;2023-04-02T07:24:07;21.30;50.70
12477;DHT22;6303;51.504;6.300;2023-04-02T07:26:36;21.40;50.90
12477;DHT22;6303;51.504;6.300;2023-04-02T07:29:05;21.30;51.00
12477;DHT22;6303;51.504;6.300;2023-04-02T07:31:32;21.40;51.10
12477;DHT22;6303;51.504;6.300;2023-04-02T07:34:00;21.30;51.10
12477;DHT22;6303;51.504;6.300;2023-04-02T07:36:28;21.30;51.10
12477;DHT22;6303;51.504;6.300;2023-04-02T07:38:55;21.30;51.10
12477;DHT22;6303;51.504;6.300;2023-04-02T07:41:22;21.30;51.10
12477;DHT22;6303;51.504;6.300;2023-04-02T07:43:52;21.30;51.10
12477;DHT22;6303;51.504;6.300;2023-04-02T07:46:19;21.30;51.10
12477;DHT22;6303;51.504;6.300;2023-04-02T07:48:46;21.30;51.10
12477;DHT22;6303;51.504;6.300;2023-04-02T07:51:15;21.30;51.10
12477;DHT22;6303;51.504;6.300;2023-04-02T07:53:42;21.30;51.00
12477;DHT22;6303;51.504;6.300;2023-04-02T07:56:13;21.30;51.00
12477;DHT22;6303;51.504;6.300;2023-04-02T07:58:41;21.30;50.90
12477;DHT22;6303;51.504;6.300;2023-04-02T08:01:16;21.40;50.90
12477;DHT22;6303;51.504;6.300;2023-04-02T08:03:44;21.30;50.90
12477;DHT22;6303;51.504;6.300;2023-04-02T08:06:11;21.30;50.90
12477;DHT22;6303;51.504;6.300;2023-04-02T08:08:39;21.30;50.90
12477;DHT22;6303;51.504;6.300;2023-04-02T08:11:06;21.40;50.90
12477;DHT22;6303;51.504;6.300;2023-04-02T08:13:33;21.40;50.90
12477;DHT22;6303;51.504;6.300;2023-04-02T08:16:01;21.40;50.90
12477;DHT22;6303;51.504;6.300;2023-04-02T08:18:29;21.40;50.80
12477;DHT22;6303;51.504;6.300;2023-04-02T08:20:57;21.40;50.80
12477;DHT22;6303;51.504;6.300;2023-04-02T08:23:25;21.40;50.70
12477;DHT22;6303;51.504;6.300;2023-04-02T08:25:53;21.40;50.70
12477;DHT22;6303;51.504;6.300;2023-04-02T08:28:21;21.40;50.60
12477;DHT22;6303;51.504;6.300;2023-04-02T08:30:49;21.40;50.50
12477;DHT22;6303;51.504;6.300;2023-04-02T08:33:17;21.50;50.50
12477;DHT22;6303;51.504;6.300;2023-04-02T08:35:46;21.50;50.50
12477;DHT22;6303;51.504;6.300;2023-04-02T08:38:15;21.50;50.40
12477;DHT22;6303;51.504;6.300;2023-04-02T08:40:44;21.50;50.30
12477;DHT22;6303;51.504;6.300;2023-04-02T08:43:30;21.50;50.30
12477;DHT22;6303;51.504;6.300;2023-04-02T08:46:08;21.50;50.30
12477;DHT22;6303;51.504;6.300;2023-04-02T08:48:39;21.50;50.20
12477;DHT22;6303;51.504;6.300;2023-04-02T08:51:20;21.50;50.10
12477;DHT22;6303;51.504;6.300;2023-04-02T08:53:47;21.70;50.20
12477;DHT22;6303;51.504;6.300;2023-04-02T08:56:18;21.50;50.00
12477;DHT22;6303;51.504;6.300;2023-04-02T08:58:49;21.60;50.00
12477;DHT22;6303;51.504;6.300;2023-04-02T09:01:26;21.60;49.90
12477;DHT22;6303;51.504;6.300;2023-04-02T09:04:00;21.60;49.90
12477;DHT22;6303;51.504;6.300;2023-04-02T09:06:29;21.60;49.80
12477;DHT22;6303;51.504;6.300;2023-04-02T09:08:56;21.70;49.70
12477;DHT22;6303;51.504;6.300;2023-04-02T09:11:32;21.70;49.50
12477;DHT22;6303;51.504;6.300;2023-04-02T09:14:04;21.70;49.60
12477;DHT22;6303;51.504;6.300;2023-04-02T09:16:41;21.70;49.70
12477;DHT22;6303;51.504;6.300;2023-04-02T09:19:15;21.70;50.00
12477;DHT22;6303;51.504;6.300;2023-04-02T09:21:58;21.70;50.40
12477;DHT22;6303;51.504;6.300;2023-04-02T09:24:26;21.80;50.60
12477;DHT22;6303;51.504;6.300;2023-04-02T09:26:53;21.80;50.60
12477;DHT22;6303;51.504;6.300;2023-04-02T09:29:42;21.80;50.60
12477;DHT22;6303;51.504;6.300;2023-04-02T09:32:26;21.80;50.60
12477;DHT22;6303;51.504;6.300;2023-04-02T09:35:07;21.90;50.50
12477;DHT22;6303;51.504;6.300;2023-04-02T09:37:39;21.90;50.40
12477;DHT22;6303;51.504;6.300;2023-04-02T09:40:16;22.00;50.30
12477;DHT22;6303;51.504;6.300;2023-04-02T09:42:44;22.00;50.10
12477;DHT22;6303;51.504;6.300;2023-04-02T09:45:14;22.10;50.10
12477;DHT22;6303;51.504;6.300;2023-04-02T09:47:45;22.10;50.00
12477;DHT22;6303;51.504;6.300;2023-04-02T09:50:21;22.10;49.90
12477;DHT22;6303;51.504;6.300;2023-04-02T09:52:51;22.10;49.70
12477;DHT22;6303;51.504;6.300;2023-04-02T09:55:23;22.20;49.60
12477;DHT22;6303;51.504;6.300;2023-04-02T09:58:07;22.20;49.60
12477;DHT22;6303;51.504;6.300;2023-04-02T10:00:36;22.20;49.50
12477;DHT22;6303;51.504;6.300;2023-04-02T10:03:22;22.20;49.40
12477;DHT22;6303;51.504;6.300;2023-04-02T10:06:04;22.20;49.30
12477;DHT22;6303;51.504;6.300;2023-04-02T10:08:33;22.20;49.30
12477;DHT22;6303;51.504;6.300;2023-04-02T10:11:03;22.30;49.10
12477;DHT22;6303;51.504;6.300;2023-04-02T10:13:37;22.30;49.10
12477;DHT22;6303;51.504;6.300;2023-04-02T10:16:11;22.30;49.00
12477;DHT22;6303;51.504;6.300;2023-04-02T10:18:45;22.30;48.90
12477;DHT22;6303;51.504;6.300;2023-04-02T10:21:17;22.30;48.80
12477;DHT22;6303;51.504;6.300;2023-04-02T10:23:46;22.30;48.80
12477;DHT22;6303;51.504;6.300;2023-04-02T10:26:37;22.30;48.70
12477;DHT22;6303;51.504;6.300;2023-04-02T10:32:09;22.30;48.60
12477;DHT22;6303;51.504;6.300;2023-04-02T10:34:42;22.30;48.50
12477;DHT22;6303;51.504;6.300;2023-04-02T10:40:27;22.40;48.40
12477;DHT22;6303;51.504;6.300;2023-04-02T10:45:48;22.40;48.30
12477;DHT22;6303;51.504;6.300;2023-04-02T10:48:23;22.40;48.30
12477;DHT22;6303;51.504;6.300;2023-04-02T10:50:58;22.30;48.10
12477;DHT22;6303;51.504;6.300;2023-04-02T10:53:31;22.30;48.10
12477;DHT22;6303;51.504;6.300;2023-04-02T10:56:08;22.30;48.10
12477;DHT22;6303;51.504;6.300;2023-04-02T10:58:39;22.30;48.10
12477;DHT22;6303;51.504;6.300;2023-04-02T11:01:14;22.30;48.10
12477;DHT22;6303;51.504;6.300;2023-04-02T11:03:45;22.30;48.10
12477;DHT22;6303;51.504;6.300;2023-04-02T11:06:19;22.30;48.10
12477;DHT22;6303;51.504;6.300;2023-04-02T11:08:50;22.30;48.10
12477;DHT22;6303;51.504;6.300;2023-04-02T11:11:21;22.30;48.10
12477;DHT22;6303;51.504;6.300;2023-04-02T11:13:54;22.30;48.10
12477;DHT22;6303;51.504;6.300;2023-04-02T11:16:24;22.30;48.10
12477;DHT22;6303;51.504;6.300;2023-04-02T11:19:19;22.30;48.00
12477;DHT22;6303;51.504;6.300;2023-04-02T11:21:48;22.30;48.00
12477;DHT22;6303;51.504;6.300;2023-04-02T11:24:31;22.20;48.00
12477;DHT22;6303;51.504;6.300;2023-04-02T11:27:13;22.20;48.20
12477;DHT22;6303;51.504;6.300;2023-04-02T11:29:43;22.20;48.10
12477;DHT22;6303;51.504;6.300;2023-04-02T11:32:37;22.30;48.10
12477;DHT22;6303;51.504;6.300;2023-04-02T11:35:24;22.30;48.00
12477;DHT22;6303;51.504;6.300;2023-04-02T11:37:53;22.30;48.00
12477;DHT22;6303;51.504;6.300;2023-04-02T11:43:50;22.30;48.00
12477;DHT22;6303;51.504;6.300;2023-04-02T11:46:44;22.30;48.00
12477;DHT22;6303;51.504;6.300;2023-04-02T11:52:20;22.30;48.10
12477;DHT22;6303;51.504;6.300;2023-04-02T11:55:02;22.30;48.10
12477;DHT22;6303;51.504;6.300;2023-04-02T11:58:00;22.30;48.10
12477;DHT22;6303;51.504;6.300;2023-04-02T12:00:49;22.30;48.00
12477;DHT22;6303;51.504;6.300;2023-04-02T12:03:36;22.30;47.80
12477;DHT22;6303;51.504;6.300;2023-04-02T12:06:16;22.30;47.70
12477;DHT22;6303;51.504;6.300;2023-04-02T12:08:52;22.30;47.70
12477;DHT22;6303;51.504;6.300;2023-04-02T12:11:30;22.30;47.70
12477;DHT22;6303;51.504;6.300;2023-04-02T12:13:59;22.30;47.60
12477;DHT22;6303;51.504;6.300;2023-04-02T12:16:32;22.30;47.60
12477;DHT22;6303;51.504;6.300;2023-04-02T12:19:00;22.30;47.60
12477;DHT22;6303;51.504;6.300;2023-04-02T12:21:29;22.30;47.60
12477;DHT22;6303;51.504;6.300;2023-04-02T12:23:57;22.30;47.70
12477;DHT22;6303;51.504;6.300;2023-04-02T12:26:28;22.30;47.70
12477;DHT22;6303;51.504;6.300;2023-04-02T12:29:15;22.30;47.80
12477;DHT22;6303;51.504;6.300;2023-04-02T12:31:45;22.30;47.70
12477;DHT22;6303;51.504;6.300;2023-04-02T12:34:13;22.30;47.70
12477;DHT22;6303;51.504;6.300;2023-04-02T12:36:54;22.30;47.70
12477;DHT22;6303;51.504;6.300;2023-04-02T12:39:22;22.30;47.60
12477;DHT22;6303;51.504;6.300;2023-04-02T12:41:49;22.30;47.60
12477;DHT22;6303;51.504;6.300;2023-04-02T12:44:17;22.30;47.60
12477;DHT22;6303;51.504;6.300;2023-04-02T12:46:48;22.30;47.50
12477;DHT22;6303;51.504;6.300;2023-04-02T12:49:25;22.30;47.50
12477;DHT22;6303;51.504;6.300;2023-04-02T12:51:55;22.30;47.50
12477;DHT22;6303;51.504;6.300;2023-04-02T12:54:23;22.30;47.50
12477;DHT22;6303;51.504;6.300;2023-04-02T12:56:50;22.30;48.20
12477;DHT22;6303;51.504;6.300;2023-04-02T12:59:29;22.30;47.70
12477;DHT22;6303;51.504;6.300;2023-04-02T13:01:59;22.30;47.80
12477;DHT22;6303;51.504;6.300;2023-04-02T13:04:27;22.20;47.90
12477;DHT22;6303;51.504;6.300;2023-04-02T13:06:54;22.30;47.90
12477;DHT22;6303;51.504;6.300;2023-04-02T13:09:29;22.30;47.90
12477;DHT22;6303;51.504;6.300;2023-04-02T13:11:57;22.20;47.80
12477;DHT22;6303;51.504;6.300;2023-04-02T13:14:25;22.30;47.90
12477;DHT22;6303;51.504;6.300;2023-04-02T13:16:53;22.30;47.80
12477;DHT22;6303;51.504;6.300;2023-04-02T13:19:24;22.30;47.90
12477;DHT22;6303;51.504;6.300;2023-04-02T13:21:52;22.30;48.30
12477;DHT22;6303;51.504;6.300;2023-04-02T13:24:20;22.40;48.40
12477;DHT22;6303;51.504;6.300;2023-04-02T13:26:48;22.40;48.40
12477;DHT22;6303;51.504;6.300;2023-04-02T13:29:19;22.40;48.40
12477;DHT22;6303;51.504;6.300;2023-04-02T13:31:47;22.40;48.30
12477;DHT22;6303;51.504;6.300;2023-04-02T13:34:14;22.40;48.10
12477;DHT22;6303;51.504;6.300;2023-04-02T13:36:43;22.40;48.10
12477;DHT22;6303;51.504;6.300;2023-04-02T13:39:10;22.40;48.10
12477;DHT22;6303;51.504;6.300;2023-04-02T13:41:39;22.40;48.10
12477;DHT22;6303;51.504;6.300;2023-04-02T13:44:17;22.40;48.00
12477;DHT22;6303;51.504;6.300;2023-04-02T13:46:45;22.40;48.00
12477;DHT22;6303;51.504;6.300;2023-04-02T13:49:12;22.40;48.00
12477;DHT22;6303;51.504;6.300;2023-04-02T13:51:43;22.40;48.60
12477;DHT22;6303;51.504;6.300;2023-04-02T13:54:17;22.40;48.00
12477;DHT22;6303;51.504;6.300;2023-04-02T13:56:44;22.40;47.90
12477;DHT22;6303;51.504;6.300;2023-04-02T13:59:12;22.40;47.80
12477;DHT22;6303;51.504;6.300;2023-04-02T14:01:40;22.40;47.80
12477;DHT22;6303;51.504;6.300;2023-04-02T14:04:09;22.40;47.80
12477;DHT22;6303;51.504;6.300;2023-04-02T14:09:48;22.40;47.50
12477;DHT22;6303;51.504;6.300;2023-04-02T14:12:23;22.40;47.40
12477;DHT22;6303;51.504;6.300;2023-04-02T14:15:11;22.50;47.60
12477;DHT22;6303;51.504;6.300;2023-04-02T14:17:49;22.50;47.60
12477;DHT22;6303;51.504;6.300;2023-04-02T14:20:29;22.50;47.60
12477;DHT22;6303;51.504;6.300;2023-04-02T14:23:11;22.50;47.60
12477;DHT22;6303;51.504;6.300;2023-04-02T14:25:44;22.50;47.60
12477;DHT22;6303;51.504;6.300;2023-04-02T14:28:19;22.50;47.50
12477;DHT22;6303;51.504;6.300;2023-04-02T14:30:56;22.50;47.50
12477;DHT22;6303;51.504;6.300;2023-04-02T14:33:33;22.50;47.50
12477;DHT22;6303;51.504;6.300;2023-04-02T14:36:11;22.50;47.40
12477;DHT22;6303;51.504;6.300;2023-04-02T14:38:48;22.50;47.50
12477;DHT22;6303;51.504;6.300;2023-04-02T14:41:19;22.50;47.40
12477;DHT22;6303;51.504;6.300;2023-04-02T14:43:52;22.50;47.30
12477;DHT22;6303;51.504;6.300;2023-04-02T14:46:24;22.50;47.40
12477;DHT22;6303;51.504;6.300;2023-04-02T14:48:55;22.50;47.50
12477;DHT22;6303;51.504;6.300;2023-04-02T14:51:28;22.50;47.50
12477;DHT22;6303;51.504;6.300;2023-04-02T14:54:06;22.50;47.40
12477;DHT22;6303;51.504;6.300;2023-04-02T14:56:38;22.50;47.40
12477;DHT22;6303;51.504;6.300;2023-04-02T14:59:24;22.50;47.30
12477;DHT22;6303;51.504;6.300;2023-04-02T15:01:55;22.50;47.30
12477;DHT22;6303;51.504;6.300;2023-04-02T15:04:28;22.50;47.10
12477;DHT22;6303;51.504;6.300;2023-04-02T15:07:02;22.50;47.20
12477;DHT22;6303;51.504;6.300;2023-04-02T15:09:34;22.40;47.20
12477;DHT22;6303;51.504;6.300;2023-04-02T15:12:07;22.40;47.20
12477;DHT22;6303;51.504;6.300;2023-04-02T15:14:40;22.40;47.40
12477;DHT22;6303;51.504;6.300;2023-04-02T15:17:10;22.40;47.20
12477;DHT22;6303;51.504;6.300;2023-04-02T15:19:37;22.40;47.10
12477;DHT22;6303;51.504;6.300;2023-04-02T15:22:13;22.40;46.90
12477;DHT22;6303;51.504;6.300;2023-04-02T15:24:50;22.40;47.20
12477;DHT22;6303;51.504;6.300;2023-04-02T15:27:29;22.40;47.30
12477;DHT22;6303;51.504;6.300;2023-04-02T15:30:04;22.40;47.40
12477;DHT22;6303;51.504;6.300;2023-04-02T15:32:37;22.40;47.50
12477;DHT22;6303;51.504;6.300;2023-04-02T15:35:21;22.40;47.60
12477;DHT22;6303;51.504;6.300;2023-04-02T15:37:58;22.40;47.60
12477;DHT22;6303;51.504;6.300;2023-04-02T15:40:47;22.30;47.50
12477;DHT22;6303;51.504;6.300;2023-04-02T15:43:19;22.30;47.50
12477;DHT22;6303;51.504;6.300;2023-04-02T15:46:04;22.30;47.50
12477;DHT22;6303;51.504;6.300;2023-04-02T15:54:33;22.30;47.50
12477;DHT22;6303;51.504;6.300;2023-04-02T15:57:15;22.20;47.60
12477;DHT22;6303;51.504;6.300;2023-04-02T16:03:04;22.20;47.30
12477;DHT22;6303;51.504;6.300;2023-04-02T16:05:38;21.90;47.30
12477;DHT22;6303;51.504;6.300;2023-04-02T16:08:19;22.20;47.60
12477;DHT22;6303;51.504;6.300;2023-04-02T16:10:50;22.10;47.60
12477;DHT22;6303;51.504;6.300;2023-04-02T16:13:29;22.10;47.60
12477;DHT22;6303;51.504;6.300;2023-04-02T16:16:02;22.10;47.50
12477;DHT22;6303;51.504;6.300;2023-04-02T16:18:37;22.10;47.70
12477;DHT22;6303;51.504;6.300;2023-04-02T16:21:06;22.10;47.80
12477;DHT22;6303;51.504;6.300;2023-04-02T16:23:35;22.10;47.90
12477;DHT22;6303;51.504;6.300;2023-04-02T16:26:11;22.00;47.90
12477;DHT22;6303;51.504;6.300;2023-04-02T16:28:47;22.00;48.00
12477;DHT22;6303;51.504;6.300;2023-04-02T16:31:21;22.00;47.90
12477;DHT22;6303;51.504;6.300;2023-04-02T16:33:59;22.00;48.00
12477;DHT22;6303;51.504;6.300;2023-04-02T16:36:41;22.00;48.00
12477;DHT22;6303;51.504;6.300;2023-04-02T16:39:21;22.40;48.10
12477;DHT22;6303;51.504;6.300;2023-04-02T16:41:57;22.00;48.10
12477;DHT22;6303;51.504;6.300;2023-04-02T16:44:38;22.00;48.10
12477;DHT22;6303;51.504;6.300;2023-04-02T16:47:21;22.10;48.20
12477;DHT22;6303;51.504;6.300;2023-04-02T16:49:54;22.00;48.10
12477;DHT22;6303;51.504;6.300;2023-04-02T16:52:33;21.90;48.10
12477;DHT22;6303;51.504;6.300;2023-04-02T16:55:15;21.90;47.90